Kolt, Denmark
Current Conditions -  °F | °C
As of 8:50 PM on Saturday 25 Oct 2014 (Local Time) from EKAH Reporting Station
Clear Clear  
Wind Chill: 46°   Ceiling: Unl
Heat Index: 46°   Visibility: 4mi
Dew Point: 43°   Wind: 3mph
Humidity: 87%   Direction: 210°SSW
Pressure: 30"   Gusts: NA
Location:  56.11°N, 10.07°E
Report Text: EKAH 251850Z AUTO 21003KT 7000NDV NCD 08/06 Q1016
Loading
Personal Weather Stations






























Interactive Weather Map
Tropical Storm Tracking
New forecast layout! Learn more

10-Day Weather Forecast

Advertisements
Track Severe Weather on mobile